Time;durP1;ratioP1;P1;durP2;ratioP2;P2;SDS_P1;SDS_P2;PMS_P1;PMS_P2;Temp;Humidity;BMP_temperature;BMP_pressure;BME280_temperature;BME280_humidity;BME280_pressure;Samples;Min_cycle;Max_cycle;Signal;HPM_P1;HPM_P2
2022/10/13 00:01:12;;;;;;;25.20;16.95;;;;;;;;;;5013058;28;20140;-66
2022/10/13 00:03:40;;;;;;;28.50;17.10;;;;;;;;;;5013282;28;20057;-66
2022/10/13 00:06:09;;;;;;;22.73;16.45;;;;;;;;;;5013433;28;20046;-65
2022/10/13 00:08:36;;;;;;;21.88;15.82;;;;;;;;;;5012588;28;20054;-66
2022/10/13 00:11:15;;;;;;;21.63;16.13;;;;;;;;;;5013591;28;20084;-66
2022/10/13 00:13:42;;;;;;;23.77;17.23;;;;;;;;;;5013003;28;20138;-66
2022/10/13 00:16:10;;;;;;;25.67;16.48;;;;;;;;;;5012759;28;20041;-66
2022/10/13 00:18:37;;;;;;;21.48;16.45;;;;;;;;;;5012125;28;20057;-66
2022/10/13 00:21:12;;;;;;;22.42;16.20;;;;;;;;;;5013239;28;20050;-67
2022/10/13 00:23:39;;;;;;;36.08;17.20;;;;;;;;;;5012796;28;20555;-66
2022/10/13 00:26:08;;;;;;;24.80;15.85;;;;;;;;;;5012823;28;20453;-65
2022/10/13 00:28:35;;;;;;;29.10;15.30;;;;;;;;;;5011852;28;20085;-64
2022/10/13 00:31:02;;;;;;;26.50;14.80;;;;;;;;;;5012583;28;20522;-65
2022/10/13 00:33:29;;;;;;;22.75;16.67;;;;;;;;;;5012567;28;20054;-64
2022/10/13 00:35:55;;;;;;;23.85;15.55;;;;;;;;;;5012400;28;20081;-65
2022/10/13 00:38:22;;;;;;;25.25;15.35;;;;;;;;;;5011820;28;20484;-64
2022/10/13 00:40:53;;;;;;;24.75;16.63;;;;;;;;;;5012403;28;20464;-64
2022/10/13 00:43:25;;;;;;;28.13;17.52;;;;;;;;;;5012346;28;20497;-65
2022/10/13 00:45:52;;;;;;;27.95;17.63;;;;;;;;;;5012355;28;20042;-64
2022/10/13 00:48:24;;;;;;;29.52;18.85;;;;;;;;;;5011587;28;20111;-64
2022/10/13 00:50:50;;;;;;;33.13;18.17;;;;;;;;;;5010968;28;20085;-65
2022/10/13 00:53:17;;;;;;;25.65;16.70;;;;;;;;;;5011060;28;20049;-65
2022/10/13 00:55:44;;;;;;;28.38;17.50;;;;;;;;;;5010894;28;20046;-65
2022/10/13 00:58:15;;;;;;;27.80;17.23;;;;;;;;;;5010308;28;20049;-65
2022/10/13 01:00:46;;;;;;;27.48;16.52;;;;;;;;;;5011242;28;20085;-65
2022/10/13 01:03:13;;;;;;;25.90;16.98;;;;;;;;;;5011217;28;20050;-65
2022/10/13 01:05:39;;;;;;;29.90;17.63;;;;;;;;;;5012115;28;20073;-65
2022/10/13 01:08:06;;;;;;;28.67;17.77;;;;;;;;;;4993932;28;20136;-66
2022/10/13 01:10:51;;;;;;;30.20;17.85;;;;;;;;;;5010919;28;20464;-65
2022/10/13 01:13:27;;;;;;;27.85;18.13;;;;;;;;;;4996158;28;20088;-66
2022/10/13 01:15:56;;;;;;;25.33;16.65;;;;;;;;;;5011992;28;20088;-67
2022/10/13 01:18:35;;;;;;;33.08;18.85;;;;;;;;;;5010029;28;20082;-66
2022/10/13 01:21:11;;;;;;;32.75;18.95;;;;;;;;;;5011908;28;20539;-66
2022/10/13 01:24:21;;;;;;;33.90;20.23;;;;;;;;;;5011903;28;20089;-66
2022/10/13 01:26:48;;;;;;;27.08;18.13;;;;;;;;;;4995717;28;20049;-64
2022/10/13 01:29:59;;;;;;;33.78;19.27;;;;;;;;;;5011096;28;20057;-64
2022/10/13 01:32:56;;;;;;;31.55;18.35;;;;;;;;;;4989844;28;20421;-65
2022/10/13 01:35:40;;;;;;;26.42;16.92;;;;;;;;;;4973633;28;20082;-66
2022/10/13 01:38:29;;;;;;;31.25;17.48;;;;;;;;;;5002019;28;20140;-66
2022/10/13 01:41:28;;;;;;;23.85;15.93;;;;;;;;;;5010656;28;20046;-66
2022/10/13 01:44:20;;;;;;;24.55;17.58;;;;;;;;;;5011640;28;20493;-66
2022/10/13 01:46:46;;;;;;;29.85;17.02;;;;;;;;;;5010643;28;20054;-66
2022/10/13 01:49:15;;;;;;;26.40;17.25;;;;;;;;;;5009787;28;20065;-67
2022/10/13 01:51:42;;;;;;;30.50;16.83;;;;;;;;;;5012805;28;20078;-66
2022/10/13 01:54:09;;;;;;;26.35;16.25;;;;;;;;;;4998001;28;20096;-66
2022/10/13 01:56:35;;;;;;;22.70;15.35;;;;;;;;;;5015412;28;20081;-67
2022/10/13 01:59:07;;;;;;;23.42;16.40;;;;;;;;;;5014823;28;20444;-66
2022/10/13 02:01:59;;;;;;;20.08;15.07;;;;;;;;;;5014341;28;20132;-66
2022/10/13 02:05:02;;;;;;;24.83;14.18;;;;;;;;;;5014054;28;20684;-66
2022/10/13 02:07:43;;;;;;;19.60;14.30;;;;;;;;;;5000445;28;20054;-67
2022/10/13 02:10:37;;;;;;;24.30;13.75;;;;;;;;;;5014701;28;20081;-66
2022/10/13 02:13:05;;;;;;;20.70;13.82;;;;;;;;;;5014359;28;20103;-66
2022/10/13 02:15:52;;;;;;;22.95;13.77;;;;;;;;;;4998372;28;20050;-66
2022/10/13 02:18:22;;;;;;;23.00;14.50;;;;;;;;;;4997384;28;20567;-67
2022/10/13 02:20:49;;;;;;;22.63;14.95;;;;;;;;;;4998514;28;20416;-65
2022/10/13 02:23:16;;;;;;;19.65;14.50;;;;;;;;;;4997929;28;20496;-67
2022/10/13 02:25:43;;;;;;;23.27;14.32;;;;;;;;;;5015079;28;20120;-66
2022/10/13 02:28:10;;;;;;;18.55;13.40;;;;;;;;;;4997159;28;20102;-66
2022/10/13 02:30:38;;;;;;;25.17;14.60;;;;;;;;;;5013827;28;20424;-66
2022/10/13 02:33:04;;;;;;;22.70;14.43;;;;;;;;;;5014929;28;20141;-67
2022/10/13 02:35:32;;;;;;;29.77;17.20;;;;;;;;;;5014612;28;20077;-66
2022/10/13 02:37:59;;;;;;;28.33;16.42;;;;;;;;;;5014249;28;20085;-66
2022/10/13 02:40:25;;;;;;;27.65;16.42;;;;;;;;;;5014698;28;20053;-65
2022/10/13 02:42:52;;;;;;;23.33;16.35;;;;;;;;;;5014870;28;20050;-66
2022/10/13 02:45:19;;;;;;;24.67;16.73;;;;;;;;;;5014690;28;20088;-66
2022/10/13 02:47:45;;;;;;;24.75;16.00;;;;;;;;;;5014381;28;20046;-65
2022/10/13 02:50:12;;;;;;;25.77;16.85;;;;;;;;;;5014084;28;20093;-66
2022/10/13 02:52:39;;;;;;;23.67;16.58;;;;;;;;;;5013472;28;20053;-67
2022/10/13 02:55:06;;;;;;;25.02;16.40;;;;;;;;;;5014428;28;20081;-67
2022/10/13 02:57:33;;;;;;;27.33;17.13;;;;;;;;;;5014364;28;20049;-66
2022/10/13 03:00:00;;;;;;;33.30;17.25;;;;;;;;;;5013640;28;20093;-66
2022/10/13 03:02:27;;;;;;;30.40;18.15;;;;;;;;;;5013082;28;20085;-66
2022/10/13 03:04:54;;;;;;;35.50;18.52;;;;;;;;;;5014715;28;20085;-67
2022/10/13 03:07:20;;;;;;;32.92;18.38;;;;;;;;;;5014117;28;20076;-66
2022/10/13 03:09:47;;;;;;;29.92;18.20;;;;;;;;;;5013302;28;20137;-67
2022/10/13 03:12:14;;;;;;;30.65;18.98;;;;;;;;;;5014263;28;20116;-66
2022/10/13 03:14:40;;;;;;;36.90;18.58;;;;;;;;;;5011809;28;20084;-66
2022/10/13 03:17:07;;;;;;;30.15;18.30;;;;;;;;;;5013797;28;20100;-66
2022/10/13 03:19:38;;;;;;;31.30;18.52;;;;;;;;;;5013324;28;20082;-66
2022/10/13 03:22:05;;;;;;;26.95;16.88;;;;;;;;;;5014041;28;20084;-66
2022/10/13 03:24:31;;;;;;;28.77;17.60;;;;;;;;;;5013925;28;20125;-66
2022/10/13 03:26:58;;;;;;;26.83;16.13;;;;;;;;;;5014193;28;20073;-66
2022/10/13 03:29:25;;;;;;;27.55;17.38;;;;;;;;;;5036000;22;20497;-63
2022/10/13 03:31:51;;;;;;;25.83;16.70;;;;;;;;;;5013746;28;20148;-63
2022/10/13 03:34:19;;;;;;;24.85;15.07;;;;;;;;;;5013825;28;20066;-63
2022/10/13 03:36:45;;;;;;;24.23;15.60;;;;;;;;;;5013657;28;20555;-63
2022/10/13 03:39:12;;;;;;;26.85;17.40;;;;;;;;;;5013144;28;20081;-63
2022/10/13 03:41:39;;;;;;;26.45;15.43;;;;;;;;;;5013743;28;20054;-63
2022/10/13 03:44:06;;;;;;;29.45;16.10;;;;;;;;;;5013519;28;20076;-63
2022/10/13 03:46:33;;;;;;;26.95;16.40;;;;;;;;;;5013475;28;20125;-63
2022/10/13 03:48:59;;;;;;;24.45;14.73;;;;;;;;;;5012814;28;20112;-63
2022/10/13 03:51:26;;;;;;;26.52;17.45;;;;;;;;;;5013715;28;20120;-63
2022/10/13 03:53:53;;;;;;;23.50;16.50;;;;;;;;;;5013461;28;20096;-63
2022/10/13 03:56:22;;;;;;;28.15;15.48;;;;;;;;;;5013364;28;20493;-63
2022/10/13 03:58:53;;;;;;;20.48;14.93;;;;;;;;;;5012703;28;20089;-63
2022/10/13 04:01:21;;;;;;;25.98;14.65;;;;;;;;;;5013526;28;20081;-62
2022/10/13 04:03:49;;;;;;;21.63;14.88;;;;;;;;;;5013590;28;20112;-63
2022/10/13 04:06:16;;;;;;;24.15;15.35;;;;;;;;;;5013808;28;20077;-63
2022/10/13 04:08:42;;;;;;;25.15;16.15;;;;;;;;;;5012892;28;20077;-63
2022/10/13 04:11:12;;;;;;;22.73;15.80;;;;;;;;;;5013114;28;20140;-63
2022/10/13 04:13:39;;;;;;;23.73;16.15;;;;;;;;;;5012705;28;20576;-63
2022/10/13 04:16:13;;;;;;;25.02;16.48;;;;;;;;;;5013193;28;20045;-63
2022/10/13 04:18:39;;;;;;;23.88;14.88;;;;;;;;;;5011470;28;20050;-62
2022/10/13 04:21:13;;;;;;;25.00;16.05;;;;;;;;;;5012720;28;20432;-63
2022/10/13 04:23:40;;;;;;;22.70;14.20;;;;;;;;;;5013144;28;20140;-62
2022/10/13 04:26:07;;;;;;;18.77;14.55;;;;;;;;;;5012871;28;20505;-63
2022/10/13 04:28:34;;;;;;;21.60;14.95;;;;;;;;;;5010745;28;20081;-63
2022/10/13 04:31:02;;;;;;;20.35;14.80;;;;;;;;;;5013076;28;20046;-63
2022/10/13 04:33:29;;;;;;;26.48;14.45;;;;;;;;;;5011828;28;20090;-63
2022/10/13 04:35:55;;;;;;;24.23;15.35;;;;;;;;;;5011538;28;20181;-62
2022/10/13 04:38:22;;;;;;;21.38;14.77;;;;;;;;;;5012525;28;20092;-63
2022/10/13 04:40:49;;;;;;;23.95;15.30;;;;;;;;;;5012551;28;20500;-63
2022/10/13 04:43:16;;;;;;;20.75;13.40;;;;;;;;;;5012490;28;20058;-63
2022/10/13 04:45:42;;;;;;;19.75;13.48;;;;;;;;;;5012722;28;20045;-63
2022/10/13 04:48:09;;;;;;;24.02;14.45;;;;;;;;;;5010926;28;20061;-63
2022/10/13 04:50:36;;;;;;;18.40;12.43;;;;;;;;;;5012652;28;20046;-63
2022/10/13 04:53:03;;;;;;;21.48;13.00;;;;;;;;;;5012370;28;20085;-62
2022/10/13 04:55:29;;;;;;;19.65;13.73;;;;;;;;;;5012666;28;20132;-63
2022/10/13 04:57:56;;;;;;;21.23;13.13;;;;;;;;;;5011824;28;20144;-63
2022/10/13 05:00:22;;;;;;;21.60;13.70;;;;;;;;;;5011264;28;20489;-63
2022/10/13 05:02:49;;;;;;;20.58;12.68;;;;;;;;;;5012549;28;20050;-63
2022/10/13 05:05:16;;;;;;;19.02;12.90;;;;;;;;;;5012449;28;20140;-63
2022/10/13 05:07:42;;;;;;;17.67;12.73;;;;;;;;;;5012064;28;20050;-63
2022/10/13 05:10:09;;;;;;;22.10;13.70;;;;;;;;;;5012001;28;20099;-63
2022/10/13 05:12:35;;;;;;;16.63;12.30;;;;;;;;;;5012601;28;20386;-63
2022/10/13 05:15:02;;;;;;;17.25;12.85;;;;;;;;;;5012413;28;20073;-63
2022/10/13 05:17:30;;;;;;;21.88;13.90;;;;;;;;;;5012069;28;20081;-63
2022/10/13 05:20:01;;;;;;;20.73;12.68;;;;;;;;;;5011520;28;20058;-63
2022/10/13 05:22:27;;;;;;;19.98;13.25;;;;;;;;;;5011945;28;20050;-62
2022/10/13 05:24:54;;;;;;;18.80;13.52;;;;;;;;;;5012391;28;20054;-62
2022/10/13 05:27:22;;;;;;;19.92;13.10;;;;;;;;;;5016059;28;20050;-62
2022/10/13 05:29:48;;;;;;;18.00;12.38;;;;;;;;;;5015833;28;20053;-62
2022/10/13 05:32:15;;;;;;;21.00;13.00;;;;;;;;;;5016344;28;20083;-62
2022/10/13 05:34:41;;;;;;;20.35;13.35;;;;;;;;;;5016180;28;20049;-63
2022/10/13 05:37:08;;;;;;;20.73;13.55;;;;;;;;;;5015852;28;20077;-62
2022/10/13 05:39:35;;;;;;;23.15;13.38;;;;;;;;;;5015539;28;20467;-62
2022/10/13 05:42:01;;;;;;;20.15;13.48;;;;;;;;;;5015995;28;20077;-62
2022/10/13 05:44:28;;;;;;;19.48;12.40;;;;;;;;;;5015876;28;20100;-63
2022/10/13 05:46:55;;;;;;;20.45;13.85;;;;;;;;;;5015827;28;20073;-63
2022/10/13 05:49:22;;;;;;;21.88;13.48;;;;;;;;;;5015019;28;20121;-63
2022/10/13 05:51:54;;;;;;;16.52;12.38;;;;;;;;;;5015652;28;20562;-63
2022/10/13 05:54:29;;;;;;;22.40;13.50;;;;;;;;;;5015969;28;20120;-63
2022/10/13 05:57:01;;;;;;;19.45;14.15;;;;;;;;;;5014567;28;20791;-62
2022/10/13 05:59:29;;;;;;;20.98;12.00;;;;;;;;;;5013862;28;20133;-63
2022/10/13 06:01:55;;;;;;;26.33;13.27;;;;;;;;;;5014436;28;20112;-62
2022/10/13 06:04:25;;;;;;;18.02;11.70;;;;;;;;;;5015345;28;20516;-62
2022/10/13 06:06:51;;;;;;;22.10;13.65;;;;;;;;;;5015489;28;20084;-63
2022/10/13 06:09:18;;;;;;;24.67;13.75;;;;;;;;;;5013812;28;20152;-63
2022/10/13 06:11:45;;;;;;;22.85;13.95;;;;;;;;;;5014122;28;20181;-63
2022/10/13 06:14:11;;;;;;;23.17;13.45;;;;;;;;;;5013850;28;20104;-63
2022/10/13 06:16:38;;;;;;;18.35;12.25;;;;;;;;;;5015111;28;20424;-63
2022/10/13 06:19:05;;;;;;;21.65;13.73;;;;;;;;;;5014619;28;20137;-63
2022/10/13 06:21:33;;;;;;;18.73;12.73;;;;;;;;;;5015520;28;20050;-63
2022/10/13 06:24:00;;;;;;;19.90;12.10;;;;;;;;;;5015624;28;20125;-63
2022/10/13 06:26:26;;;;;;;17.02;11.25;;;;;;;;;;5015259;28;20046;-63
2022/10/13 06:28:53;;;;;;;18.48;12.60;;;;;;;;;;5014357;28;20050;-63
2022/10/13 06:31:25;;;;;;;19.20;12.20;;;;;;;;;;5015600;28;20060;-63
2022/10/13 06:33:52;;;;;;;18.23;12.30;;;;;;;;;;5014900;28;20053;-69
2022/10/13 06:36:18;;;;;;;16.00;11.27;;;;;;;;;;5014450;28;20085;-63
2022/10/13 06:38:45;;;;;;;17.90;11.63;;;;;;;;;;5014526;28;20204;-63
2022/10/13 06:41:13;;;;;;;18.02;12.23;;;;;;;;;;5014854;28;20049;-63
2022/10/13 06:43:40;;;;;;;18.10;11.90;;;;;;;;;;5014682;28;20058;-63
2022/10/13 06:46:06;;;;;;;19.10;12.48;;;;;;;;;;5014885;28;20053;-63
2022/10/13 06:48:33;;;;;;;17.58;10.60;;;;;;;;;;5014589;28;20062;-63
2022/10/13 06:51:01;;;;;;;18.00;11.82;;;;;;;;;;5014816;28;20050;-63
2022/10/13 06:53:28;;;;;;;19.35;12.02;;;;;;;;;;5015539;28;20050;-63
2022/10/13 06:55:58;;;;;;;21.50;11.57;;;;;;;;;;5014696;28;20181;-63
2022/10/13 06:58:25;;;;;;;19.60;11.00;;;;;;;;;;5014189;28;20057;-63
2022/10/13 07:00:52;;;;;;;22.08;12.30;;;;;;;;;;5014484;28;20122;-63
2022/10/13 07:03:19;;;;;;;16.50;11.00;;;;;;;;;;5014772;28;20419;-63
2022/10/13 07:05:46;;;;;;;20.63;11.88;;;;;;;;;;5014627;28;20428;-63
2022/10/13 07:08:12;;;;;;;20.80;12.55;;;;;;;;;;5014106;28;20068;-63
2022/10/13 07:10:39;;;;;;;15.55;11.27;;;;;;;;;;5014158;28;20068;-63
2022/10/13 07:13:06;;;;;;;18.30;12.38;;;;;;;;;;5014616;28;20081;-63
2022/10/13 07:15:32;;;;;;;18.98;11.38;;;;;;;;;;5014385;28;20060;-63
2022/10/13 07:17:59;;;;;;;20.88;10.45;;;;;;;;;;5013466;28;20049;-63
2022/10/13 07:20:26;;;;;;;21.70;13.40;;;;;;;;;;5014159;28;20053;-63
2022/10/13 07:22:52;;;;;;;16.83;11.27;;;;;;;;;;5014142;28;20096;-63
2022/10/13 07:25:19;;;;;;;24.75;11.88;;;;;;;;;;5013021;28;20049;-63
2022/10/13 07:27:46;;;;;;;16.58;10.85;;;;;;;;;;5014129;28;20515;-63
2022/10/13 07:30:12;;;;;;;20.63;11.88;;;;;;;;;;5013687;28;20103;-63
2022/10/13 07:32:40;;;;;;;15.50;11.18;;;;;;;;;;5014085;28;20057;-63
2022/10/13 07:35:08;;;;;;;17.20;11.35;;;;;;;;;;5014058;28;20050;-63
2022/10/13 07:37:35;;;;;;;19.08;11.15;;;;;;;;;;5013596;28;20054;-62
2022/10/13 07:40:05;;;;;;;15.70;10.20;;;;;;;;;;5013354;28;20077;-62
2022/10/13 07:42:32;;;;;;;16.15;10.88;;;;;;;;;;5013941;28;20077;-63
2022/10/13 07:44:59;;;;;;;15.98;10.75;;;;;;;;;;5014032;28;20675;-63
2022/10/13 07:47:25;;;;;;;15.85;10.40;;;;;;;;;;5014126;28;20092;-62
2022/10/13 07:49:53;;;;;;;21.00;10.52;;;;;;;;;;5012178;28;20054;-63
2022/10/13 07:52:20;;;;;;;15.93;9.60;;;;;;;;;;5013457;28;20049;-63
2022/10/13 07:54:47;;;;;;;17.38;10.55;;;;;;;;;;5013518;28;20049;-62
2022/10/13 07:57:14;;;;;;;18.15;10.38;;;;;;;;;;5013626;28;20488;-62
2022/10/13 07:59:40;;;;;;;15.73;9.90;;;;;;;;;;5012878;28;20053;-63
2022/10/13 08:02:08;;;;;;;14.93;10.18;;;;;;;;;;5013486;28;20050;-63
2022/10/13 08:04:35;;;;;;;16.50;9.98;;;;;;;;;;5013308;28;20073;-63
2022/10/13 08:07:02;;;;;;;16.25;10.65;;;;;;;;;;5013209;28;20127;-64
2022/10/13 08:09:29;;;;;;;16.05;10.90;;;;;;;;;;5012786;28;20046;-63
2022/10/13 08:11:56;;;;;;;16.67;9.30;;;;;;;;;;5013080;28;20512;-63
2022/10/13 08:14:27;;;;;;;15.57;9.68;;;;;;;;;;5013130;28;20058;-63
2022/10/13 08:16:55;;;;;;;18.45;10.10;;;;;;;;;;5012556;28;20100;-63
2022/10/13 08:19:22;;;;;;;27.58;11.80;;;;;;;;;;5010795;28;20049;-64
2022/10/13 08:21:49;;;;;;;15.80;9.18;;;;;;;;;;5013100;28;20136;-64
2022/10/13 08:24:25;;;;;;;16.67;9.15;;;;;;;;;;5012901;28;20056;-64
2022/10/13 08:26:51;;;;;;;16.95;9.43;;;;;;;;;;5011834;28;20088;-64
2022/10/13 08:29:18;;;;;;;13.48;8.35;;;;;;;;;;5012096;28;20049;-64
2022/10/13 08:31:48;;;;;;;13.88;9.15;;;;;;;;;;5013086;28;20045;-64
2022/10/13 08:34:21;;;;;;;11.68;8.50;;;;;;;;;;5012863;28;20519;-64
2022/10/13 08:36:51;;;;;;;20.88;12.07;;;;;;;;;;5012886;28;20049;-64
2022/10/13 08:39:18;;;;;;;14.60;10.10;;;;;;;;;;5012051;28;20108;-64
2022/10/13 08:41:44;;;;;;;12.77;8.60;;;;;;;;;;5012535;28;20100;-64
2022/10/13 08:44:29;;;;;;;13.70;8.52;;;;;;;;;;4994955;28;20096;-64
2022/10/13 08:47:19;;;;;;;13.15;8.10;;;;;;;;;;5012881;28;20481;-64
2022/10/13 08:49:45;;;;;;;12.38;7.00;;;;;;;;;;5011808;28;20140;-64
2022/10/13 08:52:26;;;;;;;9.68;7.28;;;;;;;;;;5012584;28;20054;-64
2022/10/13 08:54:54;;;;;;;11.25;6.97;;;;;;;;;;5011437;28;20138;-64
2022/10/13 08:57:21;;;;;;;13.27;7.05;;;;;;;;;;4995315;28;20073;-64
2022/10/13 08:59:48;;;;;;;11.90;6.80;;;;;;;;;;4994303;28;20045;-63
2022/10/13 09:02:23;;;;;;;18.25;7.05;;;;;;;;;;5012306;28;20065;-64
2022/10/13 09:04:51;;;;;;;15.52;10.82;;;;;;;;;;5013129;28;20073;-63
2022/10/13 09:07:26;;;;;;;10.38;7.28;;;;;;;;;;5011499;28;20129;-64
2022/10/13 09:09:53;;;;;;;14.77;7.88;;;;;;;;;;4995151;28;20054;-64
2022/10/13 09:12:23;;;;;;;15.00;6.63;;;;;;;;;;5012541;28;20092;-64
2022/10/13 09:15:01;;;;;;;10.25;6.43;;;;;;;;;;5011101;28;20050;-64
2022/10/13 09:17:29;;;;;;;11.27;6.53;;;;;;;;;;5012311;28;20104;-64
2022/10/13 09:20:15;;;;;;;8.00;5.72;;;;;;;;;;5010129;28;20107;-64
2022/10/13 09:22:42;;;;;;;10.02;6.32;;;;;;;;;;5012337;28;20053;-64
2022/10/13 09:25:30;;;;;;;10.20;6.28;;;;;;;;;;5012234;28;20054;-64
2022/10/13 09:27:59;;;;;;;14.48;6.75;;;;;;;;;;5010123;28;20184;-64
2022/10/13 09:30:40;;;;;;;6.30;5.47;;;;;;;;;;5012685;28;20077;-63
2022/10/13 09:33:12;;;;;;;9.68;5.63;;;;;;;;;;5012336;28;20124;-64
2022/10/13 09:35:41;;;;;;;14.88;6.30;;;;;;;;;;5012121;28;20161;-64
2022/10/13 09:38:16;;;;;;;9.02;5.72;;;;;;;;;;5011407;28;20101;-63
2022/10/13 09:40:43;;;;;;;7.88;5.47;;;;;;;;;;5011785;28;20141;-64
2022/10/13 09:43:27;;;;;;;14.52;5.93;;;;;;;;;;4994487;28;20073;-63
2022/10/13 09:45:54;;;;;;;9.50;6.85;;;;;;;;;;5011153;28;20050;-64
2022/10/13 09:48:24;;;;;;;12.25;7.13;;;;;;;;;;4994017;28;20069;-63
2022/10/13 09:50:52;;;;;;;12.60;6.95;;;;;;;;;;5011666;28;20497;-64
2022/10/13 09:53:31;;;;;;;11.43;5.18;;;;;;;;;;5011822;28;20137;-65
2022/10/13 09:56:21;;;;;;;11.93;7.45;;;;;;;;;;5010902;28;20100;-64
2022/10/13 09:59:13;;;;;;;9.55;6.47;;;;;;;;;;4994299;28;20061;-63
2022/10/13 10:01:42;;;;;;;12.23;5.93;;;;;;;;;;5007702;28;20077;-63
2022/10/13 10:04:13;;;;;;;9.85;5.82;;;;;;;;;;5011820;28;20093;-65
2022/10/13 10:06:39;;;;;;;12.15;7.80;;;;;;;;;;5010568;28;20054;-64
2022/10/13 10:09:31;;;;;;;13.65;7.38;;;;;;;;;;5009997;28;20046;-63
2022/10/13 10:11:59;;;;;;;17.05;7.53;;;;;;;;;;5011990;28;20049;-64
2022/10/13 10:14:28;;;;;;;15.98;6.80;;;;;;;;;;4996279;28;20406;-64
2022/10/13 10:17:19;;;;;;;12.70;6.80;;;;;;;;;;5014036;28;20054;-63
2022/10/13 10:20:14;;;;;;;7.63;4.93;;;;;;;;;;5013455;28;20045;-64
2022/10/13 10:22:58;;;;;;;11.30;5.78;;;;;;;;;;5014901;28;20104;-63
2022/10/13 10:25:34;;;;;;;10.23;5.90;;;;;;;;;;5013864;28;20053;-64
2022/10/13 10:28:03;;;;;;;8.77;4.85;;;;;;;;;;5014290;28;20124;-64
2022/10/13 10:30:30;;;;;;;11.77;5.15;;;;;;;;;;5014768;28;20128;-64
2022/10/13 10:33:08;;;;;;;13.57;5.28;;;;;;;;;;5013998;28;20570;-63
2022/10/13 10:35:49;;;;;;;11.32;5.72;;;;;;;;;;5013721;28;20489;-63
2022/10/13 10:38:28;;;;;;;10.32;5.80;;;;;;;;;;5014066;28;20088;-64
2022/10/13 10:41:19;;;;;;;7.55;5.10;;;;;;;;;;5013551;28;20133;-64
2022/10/13 10:43:59;;;;;;;12.38;5.40;;;;;;;;;;5014809;28;20120;-65
2022/10/13 10:46:28;;;;;;;11.13;5.70;;;;;;;;;;4998183;28;20096;-63
2022/10/13 10:49:00;;;;;;;12.45;5.88;;;;;;;;;;5012787;28;20054;-63
2022/10/13 10:51:30;;;;;;;9.47;5.17;;;;;;;;;;4997696;28;20468;-63
2022/10/13 10:54:07;;;;;;;12.15;5.95;;;;;;;;;;5013273;28;20135;-64
2022/10/13 10:56:43;;;;;;;8.35;5.72;;;;;;;;;;5014482;28;20101;-62
2022/10/13 10:59:28;;;;;;;10.52;5.65;;;;;;;;;;5012306;28;20094;-62
2022/10/13 11:02:10;;;;;;;16.67;5.50;;;;;;;;;;5012962;28;20093;-64
2022/10/13 11:04:41;;;;;;;13.57;5.30;;;;;;;;;;5013105;28;20136;-63
2022/10/13 11:07:42;;;;;;;10.70;5.18;;;;;;;;;;5014499;28;20437;-62
2022/10/13 11:10:11;;;;;;;12.05;5.22;;;;;;;;;;5013319;28;20050;-64
2022/10/13 11:13:11;;;;;;;8.43;4.70;;;;;;;;;;5014261;28;20175;-64
2022/10/13 11:15:39;;;;;;;8.43;4.75;;;;;;;;;;4997718;28;20145;-63
2022/10/13 11:18:43;;;;;;;6.57;4.63;;;;;;;;;;5013360;28;20481;-63
2022/10/13 11:21:10;;;;;;;13.07;5.43;;;;;;;;;;5014039;28;20476;-63
2022/10/13 11:23:36;;;;;;;8.57;4.50;;;;;;;;;;5013138;28;20058;-62
2022/10/13 11:26:30;;;;;;;11.98;4.82;;;;;;;;;;4996697;28;20054;-65
2022/10/13 11:28:57;;;;;;;7.50;5.05;;;;;;;;;;5013153;28;20133;-63
2022/10/13 11:31:23;;;;;;;9.20;4.68;;;;;;;;;;5014024;28;20045;-63
2022/10/13 11:33:58;;;;;;;8.35;4.28;;;;;;;;;;5014112;28;20056;-62
2022/10/13 11:37:11;;;;;;;10.73;4.30;;;;;;;;;;5013832;28;20398;-63
2022/10/13 11:39:50;;;;;;;9.20;4.63;;;;;;;;;;5012691;28;20053;-63
2022/10/13 11:42:32;;;;;;;11.98;4.70;;;;;;;;;;4997533;28;20084;-62
2022/10/13 11:45:07;;;;;;;10.40;5.55;;;;;;;;;;5013681;28;20050;-62
2022/10/13 11:48:03;;;;;;;10.70;5.00;;;;;;;;;;4997003;28;20092;-64
2022/10/13 11:50:51;;;;;;;9.85;5.43;;;;;;;;;;5013540;28;20199;-63
2022/10/13 11:53:26;;;;;;;9.35;4.45;;;;;;;;;;4995927;28;20592;-64
2022/10/13 11:56:00;;;;;;;9.52;4.30;;;;;;;;;;5012057;28;20488;-62
2022/10/13 11:58:29;;;;;;;8.85;4.38;;;;;;;;;;5011365;28;20079;-63
2022/10/13 12:01:00;;;;;;;6.22;4.10;;;;;;;;;;5013574;28;20104;-63
2022/10/13 12:03:30;;;;;;;9.02;4.68;;;;;;;;;;5013359;28;20054;-63
2022/10/13 12:06:19;;;;;;;9.27;5.07;;;;;;;;;;5013353;28;20489;-62
2022/10/13 12:08:47;;;;;;;8.93;4.40;;;;;;;;;;5012710;28;20489;-62
2022/10/13 12:11:25;;;;;;;9.93;4.97;;;;;;;;;;4995942;28;20100;-64
2022/10/13 12:13:52;;;;;;;10.25;4.28;;;;;;;;;;4994687;28;20049;-63
2022/10/13 12:16:19;;;;;;;8.65;4.20;;;;;;;;;;5013232;28;20077;-63
2022/10/13 12:18:45;;;;;;;8.68;4.05;;;;;;;;;;5011050;28;20120;-62
2022/10/13 12:21:19;;;;;;;7.43;4.07;;;;;;;;;;5013459;28;20047;-62
2022/10/13 12:23:49;;;;;;;8.60;3.42;;;;;;;;;;5012916;28;20461;-62
2022/10/13 12:26:21;;;;;;;6.38;3.75;;;;;;;;;;5013031;28;20124;-62
2022/10/13 12:28:56;;;;;;;12.53;5.00;;;;;;;;;;5012045;28;20136;-63
2022/10/13 12:31:24;;;;;;;7.45;4.10;;;;;;;;;;4995931;28;20288;-62
2022/10/13 12:33:52;;;;;;;8.00;4.10;;;;;;;;;;5012911;28;20151;-63
2022/10/13 12:36:24;;;;;;;11.55;4.78;;;;;;;;;;5012442;28;20556;-64
2022/10/13 12:38:53;;;;;;;10.80;3.97;;;;;;;;;;5012379;28;20128;-63
2022/10/13 12:41:27;;;;;;;12.88;5.80;;;;;;;;;;5011519;28;20050;-63
2022/10/13 12:43:54;;;;;;;7.50;4.35;;;;;;;;;;4995657;28;20073;-62
2022/10/13 12:46:43;;;;;;;11.05;4.47;;;;;;;;;;5013772;28;20081;-62
2022/10/13 12:49:23;;;;;;;9.32;3.75;;;;;;;;;;5011988;28;20049;-63
2022/10/13 12:52:14;;;;;;;8.02;3.38;;;;;;;;;;5012447;28;20077;-63
2022/10/13 12:55:11;;;;;;;9.50;3.80;;;;;;;;;;5011242;28;20591;-62
2022/10/13 12:57:39;;;;;;;6.90;3.75;;;;;;;;;;5010886;28;20516;-63
2022/10/13 13:00:18;;;;;;;5.30;3.25;;;;;;;;;;5012343;28;20116;-63
2022/10/13 13:02:52;;;;;;;9.07;3.58;;;;;;;;;;5012307;28;20116;-63
2022/10/13 13:05:28;;;;;;;6.40;3.70;;;;;;;;;;5011430;28;20097;-62
2022/10/13 13:07:54;;;;;;;6.20;3.53;;;;;;;;;;5011660;28;20081;-62
2022/10/13 13:10:21;;;;;;;6.68;3.30;;;;;;;;;;5012314;28;20305;-62
2022/10/13 13:12:48;;;;;;;7.13;4.20;;;;;;;;;;5011119;28;20058;-62
2022/10/13 13:15:24;;;;;;;7.85;4.40;;;;;;;;;;5012036;28;20099;-63
2022/10/13 13:17:51;;;;;;;7.43;4.00;;;;;;;;;;5011829;28;20049;-62
2022/10/13 13:20:32;;;;;;;9.07;4.38;;;;;;;;;;5012470;28;20133;-63
2022/10/13 13:22:59;;;;;;;8.98;4.25;;;;;;;;;;5012022;28;20080;-62
2022/10/13 13:25:26;;;;;;;6.03;3.28;;;;;;;;;;5012026;28;20045;-64
2022/10/13 13:27:52;;;;;;;6.53;3.72;;;;;;;;;;5011589;28;20100;-62
2022/10/13 13:30:22;;;;;;;6.28;3.50;;;;;;;;;;5011259;28;20061;-63
2022/10/13 13:32:49;;;;;;;5.93;3.75;;;;;;;;;;5011387;28;20112;-63
2022/10/13 13:35:16;;;;;;;7.97;3.97;;;;;;;;;;5011359;28;20054;-62
2022/10/13 13:37:47;;;;;;;15.43;3.47;;;;;;;;;;5010875;28;20493;-64
2022/10/13 13:40:15;;;;;;;6.93;3.58;;;;;;;;;;5009813;28;20077;-62
2022/10/13 13:42:42;;;;;;;7.93;3.40;;;;;;;;;;5011405;28;20081;-63
2022/10/13 13:45:16;;;;;;;7.20;3.33;;;;;;;;;;5011175;28;20054;-63
2022/10/13 13:47:43;;;;;;;7.03;4.30;;;;;;;;;;5013261;28;20046;-64
2022/10/13 13:50:19;;;;;;;7.32;3.30;;;;;;;;;;5013887;28;20077;-63
2022/10/13 13:52:46;;;;;;;6.80;3.05;;;;;;;;;;5013581;28;20065;-64
2022/10/13 13:55:13;;;;;;;8.20;3.38;;;;;;;;;;5014557;28;20479;-65
2022/10/13 13:57:43;;;;;;;11.93;4.00;;;;;;;;;;5014547;28;20089;-63
2022/10/13 14:00:11;;;;;;;9.80;3.80;;;;;;;;;;5012800;28;20084;-64
2022/10/13 14:02:38;;;;;;;8.30;3.83;;;;;;;;;;5014285;28;20137;-63
2022/10/13 14:05:06;;;;;;;8.13;3.95;;;;;;;;;;5014097;28;20089;-62
2022/10/13 14:07:33;;;;;;;9.95;4.32;;;;;;;;;;5014333;28;20338;-62
2022/10/13 14:09:59;;;;;;;9.27;4.22;;;;;;;;;;5013606;28;20460;-63
2022/10/13 14:12:29;;;;;;;6.60;3.83;;;;;;;;;;5014122;28;20497;-63
2022/10/13 14:14:57;;;;;;;7.28;3.47;;;;;;;;;;5011930;28;20084;-63
2022/10/13 14:17:24;;;;;;;13.57;4.15;;;;;;;;;;5013882;28;20046;-62
2022/10/13 14:19:51;;;;;;;6.65;3.17;;;;;;;;;;5012875;28;20135;-64
2022/10/13 14:22:18;;;;;;;7.63;3.42;;;;;;;;;;5014177;28;20092;-63
2022/10/13 14:24:44;;;;;;;10.00;3.78;;;;;;;;;;5014001;28;20469;-62
2022/10/13 14:27:11;;;;;;;6.30;3.42;;;;;;;;;;5013914;28;20659;-63
2022/10/13 14:29:38;;;;;;;7.55;4.07;;;;;;;;;;4975662;28;1111833;-63
2022/10/13 14:32:04;;;;;;;8.52;4.47;;;;;;;;;;5015047;28;20145;-62
2022/10/13 14:34:32;;;;;;;10.07;4.32;;;;;;;;;;5014955;28;20100;-63
2022/10/13 14:36:59;;;;;;;4.47;3.45;;;;;;;;;;5014968;28;20508;-63
2022/10/13 14:39:25;;;;;;;9.35;4.20;;;;;;;;;;5014510;28;20137;-62
2022/10/13 14:41:52;;;;;;;6.78;3.92;;;;;;;;;;5015216;28;20054;-62
2022/10/13 14:44:19;;;;;;;12.75;4.53;;;;;;;;;;5015074;28;20105;-63
2022/10/13 14:46:45;;;;;;;9.77;4.70;;;;;;;;;;5014852;28;20050;-64
2022/10/13 14:49:12;;;;;;;10.73;4.53;;;;;;;;;;5014498;28;20041;-64